ěÝzenÝ letovÚho provozu ╚eskÚ republiky
Letiste: LKTB Aktualizace: 21.01.2020 22:38:26  UTC
 METAR LKTB 21.01. 22:30 ...
METAR LKTB 212230Z 29004KT 260V320 9999 OVC011 M01/M03 Q1037 R27/21//95 NOSIG RMK REG QNH 1031=
 TAF LKTB 21.01. 17:00 ...
TAF LKTB 211700Z 2118/2300 VRB02KT 7000 BKN013      TEMPO 2118/2121 BKN020      BECMG 2121/2200 3000 BR BKN007      TEMPO 2200/2208 1300 BR BKN003      BECMG 2208/2210 27006KT 9999 SCT023      BECMG 2212/2214 33010KT BKN020      BECMG 2218/2221 SCT027=